Time;durP1;ratioP1;P1;durP2;ratioP2;P2;SDS_P1;SDS_P2;PMS_P1;PMS_P2;Temp;Humidity;BMP_temperature;BMP_pressure;BME280_temperature;BME280_humidity;BME280_pressure;Samples;Min_cycle;Max_cycle;Signal;HPM_P1;HPM_P2
2022/11/29 00:01:30;;;;;;;17.88;13.43;;;;;;;8.16;80.92;100418.38;4189510;28;20102;-69
2022/11/29 00:03:34;;;;;;;16.02;12.10;;;;;;;8.17;81.15;100417.56;4190763;28;20094;-69
2022/11/29 00:05:37;;;;;;;20.52;13.93;;;;;;;8.17;81.18;100417.56;4190235;28;20033;-69
2022/11/29 00:07:40;;;;;;;18.02;13.68;;;;;;;8.18;81.23;100419.31;4189312;28;20486;-69
2022/11/29 00:09:42;;;;;;;19.15;13.00;;;;;;;8.21;80.86;100416.78;4185076;28;20045;-69
2022/11/29 00:14:08;;;;;;;20.20;14.60;;;;;;;8.22;81.01;100421.16;4190686;28;20043;-68
2022/11/29 00:16:12;;;;;;;24.73;14.63;;;;;;;8.20;81.07;100418.50;4196510;28;20086;-68
2022/11/29 00:18:15;;;;;;;17.58;13.00;;;;;;;8.18;81.01;100420.19;4192345;28;20039;-68
2022/11/29 00:20:18;;;;;;;19.35;15.75;;;;;;;8.21;81.14;100416.78;4196269;28;20036;-68
2022/11/29 00:22:22;;;;;;;20.13;14.05;;;;;;;8.20;81.41;100415.03;4196464;28;20052;-68
2022/11/29 00:24:25;;;;;;;20.15;15.63;;;;;;;8.20;81.40;100412.44;4194087;28;20037;-69
2022/11/29 00:26:28;;;;;;;19.23;13.88;;;;;;;8.21;81.46;100409.03;4188090;28;20048;-70
2022/11/29 00:28:32;;;;;;;21.17;13.95;;;;;;;8.21;81.26;100409.03;4193997;28;20044;-70
2022/11/29 00:30:35;;;;;;;17.05;14.13;;;;;;;8.21;81.46;100406.44;4195540;28;20090;-68
2022/11/29 00:32:40;;;;;;;19.63;14.07;;;;;;;8.22;81.24;100410.78;4197085;28;20040;-69
2022/11/29 00:34:42;;;;;;;18.90;13.90;;;;;;;8.22;81.29;100405.59;4189672;28;20041;-69
2022/11/29 00:36:45;;;;;;;15.57;12.23;;;;;;;8.21;81.62;100414.22;4195775;28;20375;-70
2022/11/29 00:38:48;;;;;;;17.15;12.00;;;;;;;8.22;81.46;100413.38;4196707;28;20406;-70
2022/11/29 00:40:52;;;;;;;18.00;11.98;;;;;;;8.24;81.48;100414.28;4194111;28;20414;-70
2022/11/29 00:42:54;;;;;;;16.98;13.05;;;;;;;8.24;81.31;100414.28;4187416;28;20068;-69
2022/11/29 00:44:57;;;;;;;17.13;12.25;;;;;;;8.24;81.52;100416.00;4194945;28;20037;-70
2022/11/29 00:47:00;;;;;;;20.23;14.70;;;;;;;8.20;81.31;100418.50;4184398;28;20061;-70
2022/11/29 00:49:04;;;;;;;21.67;17.00;;;;;;;8.22;81.28;100421.16;4192369;28;20586;-70
2022/11/29 00:51:08;;;;;;;15.77;12.57;;;;;;;8.20;81.38;100418.50;4192344;28;20044;-69
2022/11/29 00:53:11;;;;;;;15.63;12.57;;;;;;;8.22;81.36;100421.16;4182241;28;20035;-69
2022/11/29 00:55:14;;;;;;;15.95;12.18;;;;;;;8.24;81.36;100419.44;4192675;28;20506;-69
2022/11/29 00:57:17;;;;;;;16.95;13.18;;;;;;;8.24;81.42;100422.03;4192481;28;20040;-69
2022/11/29 00:59:20;;;;;;;16.95;12.60;;;;;;;8.25;81.30;100421.22;4199925;28;20040;-70
2022/11/29 01:01:23;;;;;;;19.80;13.50;;;;;;;8.27;81.26;100429.00;4200029;28;20041;-69
2022/11/29 01:03:26;;;;;;;16.75;12.93;;;;;;;8.27;81.42;100424.69;4199195;28;20045;-69
2022/11/29 01:05:32;;;;;;;17.00;12.48;;;;;;;8.28;81.59;100421.28;4198609;28;20078;-69
2022/11/29 01:07:35;;;;;;;19.23;12.63;;;;;;;8.26;81.30;100416.91;4200011;28;20445;-69
2022/11/29 01:09:37;;;;;;;17.27;11.70;;;;;;;8.27;81.34;100429.00;4199947;28;20033;-69
2022/11/29 01:11:40;;;;;;;17.95;13.60;;;;;;;8.28;81.46;100425.56;4199877;28;20520;-69
2022/11/29 01:13:43;;;;;;;18.05;13.23;;;;;;;8.29;81.75;100427.31;4170255;28;20091;-69
2022/11/29 01:15:55;;;;;;;16.92;12.73;;;;;;;8.31;81.39;100425.63;4199300;28;20040;-69
2022/11/29 01:17:58;;;;;;;18.95;13.60;;;;;;;8.30;81.41;100431.66;4198772;28;20052;-69
2022/11/29 01:20:01;;;;;;;18.52;13.23;;;;;;;8.30;81.41;100432.53;4192573;28;20040;-69
2022/11/29 01:22:05;;;;;;;17.58;13.32;;;;;;;8.28;81.43;100431.63;4198382;28;20502;-69
2022/11/29 01:24:08;;;;;;;18.05;12.93;;;;;;;8.28;81.48;100439.41;4192635;28;20434;-69
2022/11/29 01:26:13;;;;;;;17.85;13.80;;;;;;;8.30;81.49;100429.94;4183151;28;20033;-68
2022/11/29 01:28:16;;;;;;;15.70;11.80;;;;;;;8.32;81.19;100427.38;4191160;28;20046;-69
2022/11/29 01:30:19;;;;;;;16.90;12.25;;;;;;;8.35;81.48;100436.13;4194314;28;20047;-68
2022/11/29 01:32:22;;;;;;;20.20;13.38;;;;;;;8.34;81.49;100436.94;4199436;28;20459;-69
2022/11/29 01:34:25;;;;;;;16.88;12.00;;;;;;;8.32;81.15;100443.81;4197886;28;20439;-68
2022/11/29 01:36:28;;;;;;;19.55;13.73;;;;;;;8.33;81.29;100440.38;4196590;28;20421;-69
2022/11/29 01:38:32;;;;;;;14.30;10.77;;;;;;;8.35;81.30;100437.81;4196370;28;20051;-68
2022/11/29 01:40:35;;;;;;;12.20;9.00;;;;;;;8.35;81.30;100443.91;4199662;28;20045;-68
2022/11/29 01:42:38;;;;;;;14.95;11.70;;;;;;;8.30;81.51;100440.31;4189753;28;20037;-68
2022/11/29 01:45:01;;;;;;;13.85;10.50;;;;;;;8.29;81.51;100435.97;4189830;28;20162;-68
2022/11/29 01:47:05;;;;;;;17.33;12.90;;;;;;;8.28;81.49;100435.91;4193742;28;20525;-69
2022/11/29 01:49:12;;;;;;;17.08;12.63;;;;;;;8.31;81.71;100439.47;4191335;28;20049;-68
2022/11/29 01:51:15;;;;;;;16.10;12.45;;;;;;;8.32;81.55;100442.94;4194956;28;20048;-69
2022/11/29 01:53:19;;;;;;;17.45;13.05;;;;;;;8.32;81.27;100443.81;4186391;28;20068;-68
2022/11/29 01:55:23;;;;;;;17.75;13.20;;;;;;;8.34;81.40;100443.84;4186436;28;20056;-68
2022/11/29 01:57:27;;;;;;;17.65;12.10;;;;;;;8.35;81.33;100448.19;4193871;28;20454;-69
2022/11/29 01:59:30;;;;;;;17.83;12.88;;;;;;;8.35;81.75;100445.59;4181501;28;20041;-69
2022/11/29 02:01:33;;;;;;;14.75;10.65;;;;;;;8.36;81.59;100444.75;4196493;28;20032;-69
2022/11/29 02:03:36;;;;;;;19.17;12.90;;;;;;;8.34;81.52;100436.94;4192425;28;20045;-68
2022/11/29 02:05:42;;;;;;;17.27;13.10;;;;;;;8.36;81.48;100442.16;4198376;28;20380;-68
2022/11/29 02:07:49;;;;;;;17.52;11.68;;;;;;;8.35;81.59;100438.72;4193832;28;20032;-68
2022/11/29 02:09:52;;;;;;;16.27;12.43;;;;;;;8.36;81.68;100449.94;4190465;28;20044;-69
2022/11/29 02:12:20;;;;;;;15.23;11.82;;;;;;;8.34;81.65;100439.53;4197768;28;20048;-69
2022/11/29 02:14:48;;;;;;;18.60;13.50;;;;;;;8.34;81.53;100444.72;4189478;28;20401;-69
2022/11/29 02:17:00;;;;;;;16.67;12.55;;;;;;;8.34;81.67;100446.44;4190563;28;20044;-70
2022/11/29 02:19:18;;;;;;;19.33;13.85;;;;;;;8.34;81.81;100441.28;4196826;28;20517;-69
2022/11/29 02:21:31;;;;;;;16.10;12.15;;;;;;;8.32;81.91;100442.94;4196450;28;20500;-68
2022/11/29 02:23:50;;;;;;;18.23;13.90;;;;;;;8.33;81.92;100448.16;4183039;28;20056;-69
2022/11/29 02:26:13;;;;;;;16.92;12.40;;;;;;;8.35;81.85;100446.47;4189024;28;20036;-69
2022/11/29 02:28:45;;;;;;;17.73;13.00;;;;;;;8.37;81.81;100442.19;4187172;28;20033;-69
2022/11/29 02:31:05;;;;;;;18.60;13.18;;;;;;;8.37;81.84;100444.78;4197379;28;20048;-69
2022/11/29 02:33:34;;;;;;;17.83;13.15;;;;;;;8.38;81.91;100440.47;4192260;28;20398;-70
2022/11/29 02:35:52;;;;;;;18.95;13.82;;;;;;;8.39;81.82;100444.81;4196951;28;20545;-69
2022/11/29 02:38:18;;;;;;;17.08;12.20;;;;;;;8.38;81.78;100446.56;4181877;28;20534;-69
2022/11/29 02:40:38;;;;;;;16.60;12.18;;;;;;;8.38;82.09;100446.56;4187327;28;20053;-69
2022/11/29 02:43:01;;;;;;;18.63;12.90;;;;;;;8.38;81.60;100441.38;4185586;28;20064;-70
2022/11/29 02:45:10;;;;;;;20.38;14.30;;;;;;;8.39;81.52;100439.66;4194053;28;20119;-70
2022/11/29 02:47:25;;;;;;;21.27;14.48;;;;;;;8.41;81.75;100443.16;4195017;28;20032;-70
2022/11/29 02:49:44;;;;;;;18.05;13.38;;;;;;;8.39;81.55;100445.69;4195120;28;20043;-70
2022/11/29 02:51:54;;;;;;;17.58;13.02;;;;;;;8.38;82.03;100441.38;4197142;28;20071;-70
2022/11/29 02:54:06;;;;;;;21.05;14.68;;;;;;;8.39;81.68;100443.09;4172773;28;20041;-70
2022/11/29 02:56:15;;;;;;;18.98;13.57;;;;;;;8.39;81.75;100440.50;4185780;28;20041;-70
2022/11/29 02:58:25;;;;;;;18.05;14.02;;;;;;;8.41;81.78;100442.28;4195629;28;20028;-70
2022/11/29 03:00:29;;;;;;;19.15;14.20;;;;;;;8.41;81.78;100444.84;4198007;28;20094;-70
2022/11/29 03:02:38;;;;;;;19.27;13.48;;;;;;;8.41;81.52;100444.84;4192974;28;20101;-70
2022/11/29 03:04:50;;;;;;;23.50;13.63;;;;;;;8.39;81.66;100443.09;4195482;28;20398;-70
2022/11/29 03:07:02;;;;;;;17.83;11.77;;;;;;;8.38;81.70;100449.13;4197940;28;20411;-70
2022/11/29 03:09:12;;;;;;;15.32;10.77;;;;;;;8.41;81.51;100450.03;4198034;28;20064;-70
2022/11/29 03:11:24;;;;;;;13.63;10.38;;;;;;;8.41;81.62;100450.94;4196768;28;20072;-70
2022/11/29 03:13:47;;;;;;;15.68;11.88;;;;;;;8.43;81.59;100449.25;4195844;28;20041;-70
2022/11/29 03:15:58;;;;;;;14.88;11.73;;;;;;;8.43;81.63;100459.59;4197058;28;20441;-70
2022/11/29 03:18:13;;;;;;;15.52;11.77;;;;;;;8.45;81.58;100459.66;4191075;28;20076;-70
2022/11/29 03:20:28;;;;;;;16.95;11.32;;;;;;;8.46;81.37;100458.84;4195102;28;20044;-70
2022/11/29 03:22:42;;;;;;;14.35;11.02;;;;;;;8.42;81.79;100465.63;4197663;28;20215;-70
2022/11/29 03:24:52;;;;;;;16.63;12.35;;;;;;;8.40;81.67;100467.31;4194901;28;20037;-70
2022/11/29 03:27:01;;;;;;;14.88;11.10;;;;;;;8.38;81.48;100466.38;4196580;28;20040;-70
2022/11/29 03:29:09;;;;;;;17.30;12.85;;;;;;;8.37;81.63;100470.69;4181928;28;20036;-70
2022/11/29 03:31:20;;;;;;;12.25;10.18;;;;;;;8.36;81.56;100468.06;4192762;28;20045;-70
2022/11/29 03:33:30;;;;;;;13.48;10.57;;;;;;;8.30;81.62;100471.38;4192591;28;20569;-69
2022/11/29 03:35:40;;;;;;;14.68;10.77;;;;;;;8.30;81.51;100471.38;4181162;28;20055;-70
2022/11/29 03:37:54;;;;;;;15.68;12.13;;;;;;;8.33;81.51;100468.88;4192823;28;20047;-70
2022/11/29 03:40:04;;;;;;;17.67;13.98;;;;;;;8.33;81.69;100468.00;4196222;28;20501;-70
2022/11/29 03:42:13;;;;;;;18.65;13.20;;;;;;;8.35;81.73;100474.97;4181099;28;20513;-70
2022/11/29 03:44:19;;;;;;;20.17;15.25;;;;;;;8.36;81.50;100478.44;4188299;28;20044;-70
2022/11/29 03:46:31;;;;;;;19.98;14.60;;;;;;;8.39;81.36;100475.91;4180700;28;20056;-70
2022/11/29 03:48:40;;;;;;;17.13;13.50;;;;;;;8.39;81.44;100461.22;4191120;28;20032;-70
2022/11/29 03:50:51;;;;;;;20.02;15.95;;;;;;;8.47;81.33;100474.41;4195476;28;20517;-70
2022/11/29 03:53:00;;;;;;;18.73;14.95;;;;;;;8.47;80.98;100473.53;4195625;28;20044;-70
2022/11/29 03:55:18;;;;;;;21.05;15.93;;;;;;;8.46;81.27;100477.84;4190075;28;20040;-70
2022/11/29 03:57:31;;;;;;;22.23;15.55;;;;;;;8.48;81.20;100476.16;4183837;28;20509;-70
2022/11/29 03:59:51;;;;;;;22.38;16.88;;;;;;;8.50;81.02;100478.81;4186011;28;20044;-70
2022/11/29 04:02:33;;;;;;;26.27;19.20;;;;;;;8.50;81.20;100481.38;4195724;28;20123;-70
2022/11/29 04:05:13;;;;;;;22.77;18.13;;;;;;;8.50;81.19;100476.22;4171630;28;20075;-71
2022/11/29 04:07:34;;;;;;;22.55;18.42;;;;;;;8.51;81.13;100477.94;4180719;28;20033;-70
2022/11/29 04:09:56;;;;;;;27.90;17.13;;;;;;;8.60;80.91;100485.94;4187472;28;20047;-70
2022/11/29 04:12:16;;;;;;;26.17;18.73;;;;;;;8.59;80.67;100473.81;4195531;28;20044;-70
2022/11/29 04:14:49;;;;;;;22.88;17.67;;;;;;;8.58;80.67;100479.81;4184643;28;20044;-70
2022/11/29 04:17:21;;;;;;;23.88;17.77;;;;;;;8.57;80.78;100480.66;4191194;28;20064;-70
2022/11/29 04:19:46;;;;;;;26.05;19.88;;;;;;;8.53;80.71;100484.06;4196145;28;20086;-70
2022/11/29 04:22:14;;;;;;;28.23;20.70;;;;;;;8.55;80.32;100487.53;4196088;28;20045;-70
2022/11/29 04:24:51;;;;;;;33.25;22.27;;;;;;;8.47;80.62;100489.97;4185386;28;20504;-69
2022/11/29 04:27:29;;;;;;;27.08;20.23;;;;;;;8.47;80.62;100489.97;4195568;28;20487;-70
2022/11/29 04:29:52;;;;;;;26.02;19.70;;;;;;;8.45;80.83;100495.94;4194831;28;20045;-70
2022/11/29 04:32:13;;;;;;;27.58;19.80;;;;;;;8.51;80.38;100493.47;4176540;28;20554;-69
2022/11/29 04:35:01;;;;;;;26.67;19.98;;;;;;;8.51;80.29;100498.66;4194762;28;20036;-69
2022/11/29 04:37:18;;;;;;;27.25;19.88;;;;;;;8.36;80.50;100502.59;4168230;28;20056;-69
2022/11/29 04:39:42;;;;;;;24.42;18.60;;;;;;;8.30;81.05;100505.06;4194476;28;20106;-69
2022/11/29 04:42:23;;;;;;;24.55;19.13;;;;;;;8.38;80.83;100511.31;4189653;28;20043;-70
2022/11/29 04:44:49;;;;;;;29.15;20.35;;;;;;;8.35;80.80;100512.94;4188268;28;20094;-71
2022/11/29 04:47:12;;;;;;;27.40;18.98;;;;;;;8.34;80.93;100506.88;4190666;28;20178;-71
2022/11/29 04:49:34;;;;;;;25.55;19.35;;;;;;;8.38;80.94;100515.59;4192147;28;20036;-71
2022/11/29 04:51:55;;;;;;;25.20;18.92;;;;;;;8.36;80.96;100517.28;4184595;28;20036;-71
2022/11/29 04:54:07;;;;;;;29.50;20.50;;;;;;;8.42;80.89;100514.84;4183810;28;20041;-70
2022/11/29 04:56:19;;;;;;;29.20;20.77;;;;;;;8.36;80.81;100519.88;4193838;28;20058;-71
2022/11/29 04:58:29;;;;;;;31.95;21.45;;;;;;;8.41;81.00;100514.81;4196719;28;20033;-71
2022/11/29 05:00:43;;;;;;;29.48;20.50;;;;;;;8.40;81.22;100511.34;4192047;28;20469;-71
2022/11/29 05:02:55;;;;;;;30.42;21.02;;;;;;;8.41;81.12;100520.88;4184296;28;20064;-70
2022/11/29 05:05:04;;;;;;;31.50;21.30;;;;;;;8.44;81.16;100518.38;4188511;28;20052;-70
2022/11/29 05:07:14;;;;;;;27.60;20.17;;;;;;;8.44;80.96;100522.63;4184591;28;20094;-70
2022/11/29 05:09:27;;;;;;;32.80;22.55;;;;;;;8.44;80.98;100522.63;4184425;28;20049;-69
2022/11/29 05:11:44;;;;;;;29.00;21.30;;;;;;;8.50;80.56;100518.53;4184127;28;20044;-69
2022/11/29 05:13:53;;;;;;;30.75;22.83;;;;;;;8.48;80.79;100527.09;4190710;28;20098;-70
2022/11/29 05:16:14;;;;;;;33.67;24.50;;;;;;;8.51;80.55;100521.97;4190844;28;20040;-69
2022/11/29 05:18:42;;;;;;;34.28;22.98;;;;;;;8.44;80.45;100530.41;4194238;28;20406;-72
2022/11/29 05:20:52;;;;;;;32.53;23.15;;;;;;;8.37;80.80;100537.19;4190761;28;20086;-70
2022/11/29 05:23:13;;;;;;;33.85;23.98;;;;;;;8.33;80.91;100538.81;4189781;28;20040;-69
2022/11/29 05:25:35;;;;;;;30.88;23.02;;;;;;;8.34;80.99;100539.69;4179249;28;20099;-69
2022/11/29 05:27:45;;;;;;;30.00;21.85;;;;;;;8.32;80.75;100542.25;4182862;28;20047;-70
2022/11/29 05:29:58;;;;;;;28.85;21.13;;;;;;;8.29;81.04;100552.50;4187609;28;20049;-69
2022/11/29 05:32:20;;;;;;;31.98;23.45;;;;;;;8.29;80.69;100551.66;4188806;28;20110;-69
2022/11/29 05:34:47;;;;;;;28.20;20.75;;;;;;;8.27;81.01;100558.50;4195166;28;20101;-70
2022/11/29 05:36:59;;;;;;;32.13;24.85;;;;;;;8.23;81.00;100554.09;4196458;28;20048;-70
2022/11/29 05:39:19;;;;;;;29.67;22.52;;;;;;;8.29;81.20;100552.50;4179581;28;20041;-69
2022/11/29 05:41:43;;;;;;;29.23;20.25;;;;;;;8.27;80.82;100559.38;4197369;28;20040;-69
2022/11/29 05:43:59;;;;;;;25.70;19.75;;;;;;;8.26;81.11;100556.75;4198469;28;20046;-69
2022/11/29 05:46:09;;;;;;;25.85;19.38;;;;;;;8.23;81.24;100557.53;4199299;28;20041;-70
2022/11/29 05:48:18;;;;;;;30.05;21.60;;;;;;;8.23;81.54;100554.09;4196868;28;20037;-69
2022/11/29 05:50:28;;;;;;;27.88;20.02;;;;;;;8.26;81.36;100557.63;4199313;28;20040;-69
2022/11/29 05:52:50;;;;;;;27.70;20.00;;;;;;;8.28;81.43;100560.25;4199266;28;20040;-70
2022/11/29 05:55:06;;;;;;;25.75;20.42;;;;;;;8.28;81.46;100566.31;4198454;28;20033;-69
2022/11/29 05:57:13;;;;;;;;;;;;;;;8.18;81.60;100561.75;4198375;28;20110;-69
2022/11/29 05:59:21;;;;;;;24.92;18.23;;;;;;;8.22;81.66;100566.16;4198280;28;19939;-69
2022/11/29 06:01:27;;;;;;;26.80;19.10;;;;;;;8.24;81.62;100566.22;4194299;28;20126;-69
2022/11/29 06:03:37;;;;;;;26.17;19.40;;;;;;;8.25;81.67;100562.75;4195780;28;20123;-68
2022/11/29 06:05:46;;;;;;;29.00;20.50;;;;;;;8.28;81.61;100570.59;4197858;28;20043;-68
2022/11/29 06:07:56;;;;;;;26.38;19.52;;;;;;;8.28;81.70;100565.41;4199027;28;20041;-68
2022/11/29 06:10:03;;;;;;;28.98;19.90;;;;;;;8.27;81.56;100568.88;4199098;28;20443;-70
2022/11/29 06:12:14;;;;;;;25.25;20.13;;;;;;;8.28;81.61;100576.69;4198875;28;20051;-69
2022/11/29 06:14:41;;;;;;;24.27;17.67;;;;;;;8.27;81.69;100579.22;4196635;28;20049;-68
2022/11/29 06:17:08;;;;;;;19.13;15.00;;;;;;;8.26;81.63;100580.94;4182355;28;20450;-68
2022/11/29 06:19:43;;;;;;;21.17;16.17;;;;;;;8.23;81.60;100583.44;4181083;28;20040;-69
2022/11/29 06:21:58;;;;;;;20.85;15.88;;;;;;;8.23;81.69;100580.00;4182370;28;20103;-69
2022/11/29 06:24:17;;;;;;;27.30;19.20;;;;;;;8.20;81.75;100579.06;4181456;28;20041;-69
2022/11/29 06:26:44;;;;;;;26.23;17.63;;;;;;;8.18;81.93;100595.41;4180860;28;20143;-69
2022/11/29 06:29:01;;;;;;;22.50;15.88;;;;;;;8.20;81.74;100589.41;4182229;28;20041;-68
2022/11/29 06:31:15;;;;;;;24.80;17.30;;;;;;;8.24;81.84;100600.75;4182005;28;20495;-68
2022/11/29 06:33:23;;;;;;;22.27;16.90;;;;;;;8.22;81.98;100597.25;4180455;28;20087;-71
2022/11/29 06:35:37;;;;;;;20.67;16.05;;;;;;;8.17;81.82;100599.69;4180714;28;20135;-69
2022/11/29 06:37:45;;;;;;;21.67;16.17;;;;;;;8.13;81.84;100603.06;4180986;28;20098;-69
2022/11/29 06:39:48;;;;;;;19.20;14.57;;;;;;;8.02;81.97;100600.16;4181824;28;20061;-69
2022/11/29 06:41:52;;;;;;;19.35;15.13;;;;;;;7.93;82.13;100607.69;4181867;28;20039;-69
2022/11/29 06:43:55;;;;;;;18.65;15.30;;;;;;;7.85;82.27;100610.06;4181065;28;20041;-69
2022/11/29 06:46:05;;;;;;;20.17;16.20;;;;;;;7.86;82.72;100605.78;4181852;28;20053;-69
2022/11/29 06:48:14;;;;;;;19.20;14.93;;;;;;;7.90;82.19;100609.31;4181981;28;20078;-69
2022/11/29 06:50:32;;;;;;;20.05;15.75;;;;;;;7.94;82.16;100613.75;4182221;28;20102;-69
2022/11/29 06:52:42;;;;;;;17.35;13.95;;;;;;;7.97;82.17;100616.41;4181733;28;20037;-69
2022/11/29 06:55:00;;;;;;;24.30;18.35;;;;;;;8.06;82.13;100618.38;4163062;28;20053;-69
2022/11/29 06:57:11;;;;;;;17.98;14.80;;;;;;;8.09;81.89;100624.53;4180521;28;20051;-69
2022/11/29 06:59:29;;;;;;;18.73;14.32;;;;;;;8.00;81.80;100629.44;4180430;28;20063;-69
2022/11/29 07:01:40;;;;;;;19.35;13.77;;;;;;;7.92;81.72;100630.97;4181467;28;20040;-69
2022/11/29 07:03:59;;;;;;;19.25;15.00;;;;;;;7.94;81.80;100630.13;4196474;28;20052;-69
2022/11/29 07:06:08;;;;;;;20.95;15.57;;;;;;;7.93;81.96;100633.59;4185661;28;20041;-69
2022/11/29 07:08:15;;;;;;;18.45;14.38;;;;;;;7.93;81.88;100633.59;4198018;28;20449;-70
2022/11/29 07:10:20;;;;;;;20.23;16.92;;;;;;;7.94;81.72;100642.22;4198206;28;20482;-69
2022/11/29 07:12:23;;;;;;;18.00;14.13;;;;;;;7.88;82.12;100635.16;4196853;28;20127;-69
2022/11/29 07:14:28;;;;;;;19.15;14.88;;;;;;;7.82;82.22;100637.56;4196097;28;20533;-69
2022/11/29 07:16:36;;;;;;;18.00;14.95;;;;;;;7.77;82.38;100640.03;4197985;28;20383;-69
2022/11/29 07:18:47;;;;;;;17.42;14.23;;;;;;;7.79;81.97;100646.13;4196926;28;20067;-68
2022/11/29 07:21:02;;;;;;;17.77;13.73;;;;;;;7.86;82.01;100647.19;4197968;28;20045;-68
2022/11/29 07:23:09;;;;;;;;;;;;;;;7.77;82.25;100644.31;4192570;28;20406;-68
2022/11/29 07:25:21;;;;;;;16.80;13.32;;;;;;;7.84;82.10;100651.44;4181007;28;20401;-68
2022/11/29 07:27:32;;;;;;;17.15;13.48;;;;;;;7.91;82.15;100647.31;4181352;28;20048;-68
2022/11/29 07:29:44;;;;;;;18.02;13.57;;;;;;;7.94;82.01;100658.63;4181420;28;20486;-68
2022/11/29 07:31:59;;;;;;;16.05;12.65;;;;;;;7.94;81.61;100650.84;4181282;28;20041;-68
2022/11/29 07:34:13;;;;;;;16.65;13.00;;;;;;;7.90;81.88;100659.38;4180497;28;20048;-69
2022/11/29 07:36:28;;;;;;;15.38;11.52;;;;;;;7.94;82.04;100652.56;4180129;28;20044;-69
2022/11/29 07:38:39;;;;;;;19.15;16.48;;;;;;;8.02;81.90;100651.94;4181220;28;20045;-69
2022/11/29 07:40:51;;;;;;;17.77;14.23;;;;;;;8.04;81.72;100649.41;4181503;28;20040;-69
2022/11/29 07:43:09;;;;;;;17.75;13.30;;;;;;;8.13;81.03;100659.13;4181161;28;20060;-69
2022/11/29 07:45:20;;;;;;;14.40;12.23;;;;;;;8.14;81.38;100653.13;4179550;28;20033;-69
2022/11/29 07:47:23;;;;;;;17.15;13.38;;;;;;;8.18;81.23;100665.34;4181204;28;20093;-69
2022/11/29 07:49:26;;;;;;;25.02;17.30;;;;;;;8.28;81.57;100662.16;4181041;28;20491;-69
2022/11/29 07:51:31;;;;;;;18.27;14.88;;;;;;;8.38;80.76;100660.66;4181055;28;20053;-69
2022/11/29 07:53:40;;;;;;;21.30;15.48;;;;;;;8.47;79.67;100665.25;4180160;28;20414;-69
2022/11/29 07:55:43;;;;;;;15.48;12.15;;;;;;;8.39;79.73;100668.47;4180988;28;20095;-69
2022/11/29 07:57:47;;;;;;;16.00;12.95;;;;;;;8.36;79.91;100664.94;4181343;28;20123;-68
2022/11/29 07:59:50;;;;;;;19.15;14.18;;;;;;;8.38;80.32;100666.75;4180795;28;20041;-68
2022/11/29 08:01:53;;;;;;;15.48;12.55;;;;;;;8.41;79.99;100671.13;4180876;28;20044;-69
2022/11/29 08:03:56;;;;;;;16.10;13.20;;;;;;;8.46;80.07;100672.16;4196514;28;20051;-69
2022/11/29 08:05:59;;;;;;;16.38;13.55;;;;;;;8.48;79.88;100672.19;4197386;28;20102;-69
2022/11/29 08:08:03;;;;;;;21.48;15.75;;;;;;;8.57;79.06;100677.59;4197371;28;20097;-68
2022/11/29 08:10:08;;;;;;;19.02;13.90;;;;;;;8.62;78.77;100673.44;4197331;28;20121;-68
2022/11/29 08:12:11;;;;;;;16.27;12.48;;;;;;;8.47;79.02;100670.44;4197435;28;20044;-68
2022/11/29 08:14:14;;;;;;;17.70;14.52;;;;;;;8.48;78.75;100674.78;4189400;28;20124;-68
2022/11/29 08:16:18;;;;;;;18.20;13.45;;;;;;;8.46;79.14;100674.75;4180672;28;20128;-68
2022/11/29 08:18:21;;;;;;;17.13;14.63;;;;;;;8.47;79.17;100678.19;4180660;28;20045;-68
2022/11/29 08:20:24;;;;;;;17.65;13.65;;;;;;;8.46;79.09;100676.47;4179428;28;20037;-68
2022/11/29 08:22:27;;;;;;;17.80;12.82;;;;;;;8.44;79.39;100673.84;4180612;28;20086;-68
2022/11/29 08:24:31;;;;;;;15.80;12.90;;;;;;;8.45;79.37;100680.75;4178577;28;20041;-68
2022/11/29 08:26:34;;;;;;;18.48;13.65;;;;;;;8.45;79.69;100682.47;4180572;28;20402;-68
2022/11/29 08:28:37;;;;;;;16.35;14.18;;;;;;;8.46;79.93;100681.66;4180585;28;20387;-68
2022/11/29 08:30:39;;;;;;;19.48;14.05;;;;;;;8.48;80.07;100687.72;4180871;28;20033;-69
2022/11/29 08:32:42;;;;;;;15.95;12.90;;;;;;;8.50;80.16;100688.66;4180605;28;20068;-69
2022/11/29 08:34:52;;;;;;;19.98;14.98;;;;;;;8.53;80.23;100691.34;4178621;28;20045;-69
2022/11/29 08:36:56;;;;;;;18.00;14.27;;;;;;;8.56;80.02;100691.41;4179313;28;20041;-69
2022/11/29 08:39:01;;;;;;;16.00;13.85;;;;;;;8.57;79.72;100693.16;4180491;28;20045;-69
2022/11/29 08:41:14;;;;;;;19.00;15.18;;;;;;;8.60;79.79;100692.34;4180524;28;20064;-69
2022/11/29 08:43:17;;;;;;;17.70;13.68;;;;;;;8.66;79.63;100697.69;4179740;28;20127;-69
2022/11/29 08:45:20;;;;;;;25.60;13.43;;;;;;;8.62;79.45;100694.16;4180381;28;20384;-69
2022/11/29 08:47:39;;;;;;;19.85;14.27;;;;;;;8.68;78.97;100702.09;4180328;28;20131;-69
2022/11/29 08:54:16;;;;;;;22.63;14.70;;;;;;;8.69;79.00;100705.56;4179298;28;20041;-69
2022/11/29 08:56:20;;;;;;;18.38;14.32;;;;;;;8.74;78.71;100706.56;4180413;28;20124;-69
2022/11/29 08:58:43;;;;;;;19.20;14.32;;;;;;;8.69;78.68;100705.56;4180415;28;20040;-70
2022/11/29 09:00:46;;;;;;;17.80;13.75;;;;;;;8.67;79.03;100705.53;4180263;28;20087;-69
2022/11/29 09:02:49;;;;;;;19.15;15.07;;;;;;;8.74;79.01;100715.19;4187259;28;20094;-69
2022/11/29 09:05:02;;;;;;;17.63;15.40;;;;;;;8.70;78.77;100710.78;4190388;28;20037;-70
2022/11/29 09:07:05;;;;;;;16.92;13.80;;;;;;;8.73;79.00;100716.06;4190111;28;20479;-69
2022/11/29 09:09:08;;;;;;;16.88;13.45;;;;;;;8.79;78.51;100714.44;4196751;28;20060;-70
2022/11/29 09:11:12;;;;;;;18.45;14.00;;;;;;;8.84;78.42;100716.31;4196835;28;20036;-70
2022/11/29 09:13:17;;;;;;;18.05;12.90;;;;;;;8.80;78.50;100727.44;4196500;28;20044;-70
2022/11/29 09:15:20;;;;;;;16.85;13.52;;;;;;;8.81;78.25;100724.03;4199727;28;20063;-69
2022/11/29 09:17:23;;;;;;;20.42;14.05;;;;;;;8.81;78.71;100733.53;4200009;28;20044;-70
2022/11/29 09:19:26;;;;;;;22.30;13.25;;;;;;;8.76;78.86;100729.91;4199939;28;20048;-70
2022/11/29 09:21:31;;;;;;;21.10;15.45;;;;;;;8.77;78.99;100729.09;4188931;28;20028;-70
2022/11/29 09:23:33;;;;;;;;;;;;;;;8.74;78.53;100733.34;4195536;28;20037;-70
2022/11/29 09:25:36;;;;;;;23.65;14.20;;;;;;;8.71;78.84;100735.84;4198533;28;19921;-70
2022/11/29 09:27:40;;;;;;;25.63;15.40;;;;;;;8.74;78.76;100743.72;4193909;28;20091;-70
2022/11/29 09:29:44;;;;;;;19.73;13.47;;;;;;;8.77;78.76;100744.66;4196914;28;20037;-70
2022/11/29 09:31:47;;;;;;;16.67;13.23;;;;;;;8.66;79.01;100747.84;4194926;28;20468;-69
2022/11/29 09:33:50;;;;;;;19.55;14.27;;;;;;;8.69;79.19;100747.03;4194174;28;20036;-70
2022/11/29 09:35:57;;;;;;;21.42;15.20;;;;;;;8.69;79.21;100749.63;4199747;28;20044;-70
2022/11/29 09:38:00;;;;;;;20.15;14.73;;;;;;;8.68;79.16;100751.31;4199613;28;20043;-70
2022/11/29 09:40:03;;;;;;;20.60;15.05;;;;;;;8.72;79.38;100753.16;4197519;28;20029;-70
2022/11/29 09:42:19;;;;;;;21.95;14.50;;;;;;;8.76;79.03;100754.16;4199620;28;20490;-69
2022/11/29 09:44:30;;;;;;;21.65;16.05;;;;;;;8.74;79.12;100754.06;4198765;28;20048;-69
2022/11/29 09:46:43;;;;;;;19.67;13.93;;;;;;;8.81;78.97;100760.31;4199483;28;20040;-69
2022/11/29 09:49:01;;;;;;;20.30;15.48;;;;;;;8.80;78.52;100762.88;4198390;28;20036;-69
2022/11/29 09:51:16;;;;;;;20.67;15.15;;;;;;;8.69;78.64;100763.47;4189529;28;20033;-69
2022/11/29 09:53:37;;;;;;;21.48;14.95;;;;;;;8.70;79.22;100766.91;4180729;28;20048;-69
2022/11/29 09:55:54;;;;;;;23.13;14.38;;;;;;;8.72;79.46;100757.50;4181980;28;20582;-69
2022/11/29 09:58:02;;;;;;;15.90;13.40;;;;;;;8.79;79.40;100762.00;4181609;28;20037;-69
2022/11/29 10:00:13;;;;;;;21.00;14.60;;;;;;;8.83;79.32;100752.56;4181501;28;20136;-69
2022/11/29 10:02:23;;;;;;;25.42;16.83;;;;;;;8.90;78.73;100757.09;4183148;28;20096;-69
2022/11/29 10:04:31;;;;;;;29.15;16.90;;;;;;;8.89;78.44;100752.72;4181920;28;20037;-69
2022/11/29 10:06:38;;;;;;;23.50;17.55;;;;;;;8.86;78.75;100763.00;4182600;28;20040;-69
2022/11/29 10:08:47;;;;;;;26.55;20.65;;;;;;;8.83;79.32;100755.16;4164896;28;20518;-69